sensor_id;sensor_type;location;lat;lon;timestamp;P1;durP1;ratioP1;P2;durP2;ratioP2
76856;SDS011;69705;44.686;37.628;2023-07-13T00:01:47;7.40;;;3.73;;
76856;SDS011;69705;44.686;37.628;2023-07-13T00:04:16;8.02;;;3.92;;
76856;SDS011;69705;44.686;37.628;2023-07-13T00:06:45;7.55;;;3.80;;
76856;SDS011;69705;44.686;37.628;2023-07-13T00:09:16;7.80;;;4.32;;
76856;SDS011;69705;44.686;37.628;2023-07-13T00:11:44;7.20;;;3.85;;
76856;SDS011;69705;44.686;37.628;2023-07-13T00:14:13;7.43;;;3.93;;
76856;SDS011;69705;44.686;37.628;2023-07-13T00:16:42;7.18;;;4.32;;
76856;SDS011;69705;44.686;37.628;2023-07-13T00:19:31;7.05;;;4.40;;
76856;SDS011;69705;44.686;37.628;2023-07-13T00:21:58;8.73;;;4.47;;
76856;SDS011;69705;44.686;37.628;2023-07-13T00:24:25;9.55;;;4.30;;
76856;SDS011;69705;44.686;37.628;2023-07-13T00:26:53;7.83;;;4.07;;
76856;SDS011;69705;44.686;37.628;2023-07-13T00:29:21;9.35;;;4.30;;
76856;SDS011;69705;44.686;37.628;2023-07-13T00:31:47;7.88;;;4.60;;
76856;SDS011;69705;44.686;37.628;2023-07-13T00:34:14;10.27;;;4.78;;
76856;SDS011;69705;44.686;37.628;2023-07-13T00:36:41;7.93;;;4.15;;
76856;SDS011;69705;44.686;37.628;2023-07-13T00:39:08;8.37;;;4.63;;
76856;SDS011;69705;44.686;37.628;2023-07-13T00:41:35;7.82;;;4.40;;
76856;SDS011;69705;44.686;37.628;2023-07-13T00:44:03;7.45;;;4.65;;
76856;SDS011;69705;44.686;37.628;2023-07-13T00:46:32;8.63;;;4.50;;
76856;SDS011;69705;44.686;37.628;2023-07-13T00:49:04;10.52;;;4.90;;
76856;SDS011;69705;44.686;37.628;2023-07-13T00:51:36;9.03;;;4.43;;
76856;SDS011;69705;44.686;37.628;2023-07-13T00:54:11;9.27;;;4.75;;
76856;SDS011;69705;44.686;37.628;2023-07-13T00:56:43;8.68;;;4.63;;
76856;SDS011;69705;44.686;37.628;2023-07-13T00:59:12;10.45;;;4.68;;
76856;SDS011;69705;44.686;37.628;2023-07-13T01:01:40;8.00;;;4.63;;
76856;SDS011;69705;44.686;37.628;2023-07-13T01:04:07;8.27;;;4.70;;
76856;SDS011;69705;44.686;37.628;2023-07-13T01:06:37;9.07;;;5.10;;
76856;SDS011;69705;44.686;37.628;2023-07-13T01:09:06;9.50;;;4.60;;
76856;SDS011;69705;44.686;37.628;2023-07-13T01:11:34;9.77;;;4.90;;
76856;SDS011;69705;44.686;37.628;2023-07-13T01:14:02;7.88;;;4.65;;
76856;SDS011;69705;44.686;37.628;2023-07-13T01:16:33;8.30;;;4.70;;
76856;SDS011;69705;44.686;37.628;2023-07-13T01:19:03;6.93;;;4.28;;
76856;SDS011;69705;44.686;37.628;2023-07-13T01:21:40;8.30;;;4.60;;
76856;SDS011;69705;44.686;37.628;2023-07-13T01:24:09;7.68;;;4.65;;
76856;SDS011;69705;44.686;37.628;2023-07-13T01:26:36;7.85;;;4.18;;
76856;SDS011;69705;44.686;37.628;2023-07-13T01:29:02;7.23;;;4.40;;
76856;SDS011;69705;44.686;37.628;2023-07-13T01:31:30;8.30;;;4.22;;
76856;SDS011;69705;44.686;37.628;2023-07-13T01:33:58;7.50;;;4.28;;
76856;SDS011;69705;44.686;37.628;2023-07-13T01:36:25;8.45;;;4.60;;
76856;SDS011;69705;44.686;37.628;2023-07-13T01:38:51;8.80;;;4.20;;
76856;SDS011;69705;44.686;37.628;2023-07-13T01:41:18;8.83;;;4.30;;
76856;SDS011;69705;44.686;37.628;2023-07-13T01:43:46;7.70;;;4.15;;
76856;SDS011;69705;44.686;37.628;2023-07-13T01:46:13;9.15;;;4.13;;
76856;SDS011;69705;44.686;37.628;2023-07-13T01:48:40;8.13;;;4.00;;
76856;SDS011;69705;44.686;37.628;2023-07-13T01:51:06;7.18;;;4.05;;
76856;SDS011;69705;44.686;37.628;2023-07-13T01:53:33;9.03;;;4.13;;
76856;SDS011;69705;44.686;37.628;2023-07-13T01:56:02;7.82;;;4.10;;
76856;SDS011;69705;44.686;37.628;2023-07-13T01:58:29;8.65;;;4.20;;
76856;SDS011;69705;44.686;37.628;2023-07-13T02:00:56;10.70;;;4.30;;
76856;SDS011;69705;44.686;37.628;2023-07-13T02:03:22;9.10;;;4.55;;
76856;SDS011;69705;44.686;37.628;2023-07-13T02:05:50;9.13;;;4.07;;
76856;SDS011;69705;44.686;37.628;2023-07-13T02:08:16;9.05;;;4.40;;
76856;SDS011;69705;44.686;37.628;2023-07-13T02:10:44;9.07;;;4.20;;
76856;SDS011;69705;44.686;37.628;2023-07-13T02:13:11;7.80;;;4.30;;
76856;SDS011;69705;44.686;37.628;2023-07-13T02:15:39;7.93;;;4.30;;
76856;SDS011;69705;44.686;37.628;2023-07-13T02:18:07;7.20;;;4.23;;
76856;SDS011;69705;44.686;37.628;2023-07-13T02:20:33;7.38;;;4.72;;
76856;SDS011;69705;44.686;37.628;2023-07-13T02:23:00;8.57;;;4.35;;
76856;SDS011;69705;44.686;37.628;2023-07-13T02:25:27;8.35;;;4.72;;
76856;SDS011;69705;44.686;37.628;2023-07-13T02:27:54;8.45;;;4.85;;
76856;SDS011;69705;44.686;37.628;2023-07-13T02:30:21;9.10;;;5.00;;
76856;SDS011;69705;44.686;37.628;2023-07-13T02:32:54;7.70;;;4.45;;
76856;SDS011;69705;44.686;37.628;2023-07-13T02:35:20;7.78;;;4.43;;
76856;SDS011;69705;44.686;37.628;2023-07-13T02:37:48;9.35;;;4.60;;
76856;SDS011;69705;44.686;37.628;2023-07-13T02:40:15;7.35;;;4.70;;
76856;SDS011;69705;44.686;37.628;2023-07-13T02:42:42;10.03;;;5.00;;
76856;SDS011;69705;44.686;37.628;2023-07-13T02:45:09;8.18;;;4.13;;
76856;SDS011;69705;44.686;37.628;2023-07-13T02:47:36;9.23;;;4.40;;
76856;SDS011;69705;44.686;37.628;2023-07-13T02:50:03;7.38;;;4.25;;
76856;SDS011;69705;44.686;37.628;2023-07-13T02:52:31;8.38;;;4.40;;
76856;SDS011;69705;44.686;37.628;2023-07-13T02:54:58;7.60;;;4.60;;
76856;SDS011;69705;44.686;37.628;2023-07-13T02:57:25;8.85;;;4.50;;
76856;SDS011;69705;44.686;37.628;2023-07-13T02:59:53;8.50;;;4.32;;
76856;SDS011;69705;44.686;37.628;2023-07-13T03:02:21;7.80;;;4.25;;
76856;SDS011;69705;44.686;37.628;2023-07-13T03:04:48;7.70;;;4.22;;
76856;SDS011;69705;44.686;37.628;2023-07-13T03:07:15;7.33;;;4.67;;
76856;SDS011;69705;44.686;37.628;2023-07-13T03:09:42;7.55;;;4.47;;
76856;SDS011;69705;44.686;37.628;2023-07-13T03:12:09;9.38;;;4.47;;
76856;SDS011;69705;44.686;37.628;2023-07-13T03:14:39;7.20;;;4.40;;
76856;SDS011;69705;44.686;37.628;2023-07-13T03:17:07;9.27;;;4.85;;
76856;SDS011;69705;44.686;37.628;2023-07-13T03:19:38;9.37;;;4.83;;
76856;SDS011;69705;44.686;37.628;2023-07-13T03:22:05;8.43;;;4.65;;
76856;SDS011;69705;44.686;37.628;2023-07-13T03:24:34;8.13;;;4.88;;
76856;SDS011;69705;44.686;37.628;2023-07-13T03:27:03;11.02;;;4.78;;
76856;SDS011;69705;44.686;37.628;2023-07-13T03:29:32;9.27;;;4.85;;
76856;SDS011;69705;44.686;37.628;2023-07-13T03:31:59;8.10;;;4.30;;
76856;SDS011;69705;44.686;37.628;2023-07-13T03:34:26;8.30;;;4.60;;
76856;SDS011;69705;44.686;37.628;2023-07-13T03:36:56;8.18;;;4.50;;
76856;SDS011;69705;44.686;37.628;2023-07-13T03:39:24;10.65;;;5.10;;
76856;SDS011;69705;44.686;37.628;2023-07-13T03:41:54;8.55;;;5.00;;
76856;SDS011;69705;44.686;37.628;2023-07-13T03:44:22;9.57;;;5.22;;
76856;SDS011;69705;44.686;37.628;2023-07-13T03:46:53;8.93;;;5.32;;
76856;SDS011;69705;44.686;37.628;2023-07-13T03:49:20;9.18;;;5.63;;
76856;SDS011;69705;44.686;37.628;2023-07-13T03:51:47;10.07;;;6.38;;
76856;SDS011;69705;44.686;37.628;2023-07-13T03:54:16;12.93;;;7.97;;
76856;SDS011;69705;44.686;37.628;2023-07-13T03:56:44;13.10;;;8.47;;
76856;SDS011;69705;44.686;37.628;2023-07-13T03:59:12;10.50;;;6.50;;
76856;SDS011;69705;44.686;37.628;2023-07-13T04:01:39;10.20;;;5.45;;
76856;SDS011;69705;44.686;37.628;2023-07-13T04:04:06;11.52;;;5.60;;
76856;SDS011;69705;44.686;37.628;2023-07-13T04:06:33;8.32;;;5.80;;
76856;SDS011;69705;44.686;37.628;2023-07-13T04:09:01;10.40;;;5.60;;
76856;SDS011;69705;44.686;37.628;2023-07-13T04:11:31;11.02;;;5.00;;
76856;SDS011;69705;44.686;37.628;2023-07-13T04:13:59;11.32;;;5.40;;
76856;SDS011;69705;44.686;37.628;2023-07-13T04:16:27;8.93;;;5.18;;
76856;SDS011;69705;44.686;37.628;2023-07-13T04:18:54;9.25;;;5.20;;
76856;SDS011;69705;44.686;37.628;2023-07-13T04:21:29;8.97;;;5.20;;
76856;SDS011;69705;44.686;37.628;2023-07-13T04:23:57;24.90;;;18.13;;
76856;SDS011;69705;44.686;37.628;2023-07-13T04:26:24;11.85;;;6.75;;
76856;SDS011;69705;44.686;37.628;2023-07-13T04:28:52;8.13;;;5.28;;
76856;SDS011;69705;44.686;37.628;2023-07-13T04:31:18;11.55;;;6.05;;
76856;SDS011;69705;44.686;37.628;2023-07-13T04:33:46;11.57;;;5.57;;
76856;SDS011;69705;44.686;37.628;2023-07-13T04:36:14;11.25;;;6.32;;
76856;SDS011;69705;44.686;37.628;2023-07-13T04:38:41;9.38;;;5.53;;
76856;SDS011;69705;44.686;37.628;2023-07-13T04:41:08;8.70;;;5.82;;
76856;SDS011;69705;44.686;37.628;2023-07-13T04:43:35;9.77;;;5.50;;
76856;SDS011;69705;44.686;37.628;2023-07-13T04:46:06;8.73;;;5.57;;
76856;SDS011;69705;44.686;37.628;2023-07-13T04:48:34;9.25;;;5.57;;
76856;SDS011;69705;44.686;37.628;2023-07-13T04:51:01;10.15;;;5.35;;
76856;SDS011;69705;44.686;37.628;2023-07-13T04:53:29;8.55;;;5.57;;
76856;SDS011;69705;44.686;37.628;2023-07-13T04:55:56;9.93;;;5.70;;
76856;SDS011;69705;44.686;37.628;2023-07-13T04:58:24;8.47;;;5.37;;
76856;SDS011;69705;44.686;37.628;2023-07-13T05:00:52;10.82;;;5.45;;
76856;SDS011;69705;44.686;37.628;2023-07-13T05:03:19;7.75;;;5.00;;
76856;SDS011;69705;44.686;37.628;2023-07-13T05:08:42;8.88;;;5.18;;
76856;SDS011;69705;44.686;37.628;2023-07-13T05:11:08;8.57;;;5.10;;
76856;SDS011;69705;44.686;37.628;2023-07-13T05:13:35;10.20;;;5.78;;
76856;SDS011;69705;44.686;37.628;2023-07-13T05:16:04;8.68;;;5.28;;
76856;SDS011;69705;44.686;37.628;2023-07-13T05:18:34;8.35;;;5.13;;
76856;SDS011;69705;44.686;37.628;2023-07-13T05:21:03;9.10;;;5.10;;
76856;SDS011;69705;44.686;37.628;2023-07-13T05:23:33;9.83;;;5.50;;
76856;SDS011;69705;44.686;37.628;2023-07-13T05:26:01;13.05;;;5.47;;
76856;SDS011;69705;44.686;37.628;2023-07-13T05:28:30;8.65;;;5.47;;
76856;SDS011;69705;44.686;37.628;2023-07-13T05:30:57;9.10;;;5.32;;
76856;SDS011;69705;44.686;37.628;2023-07-13T05:33:25;10.95;;;5.10;;
76856;SDS011;69705;44.686;37.628;2023-07-13T05:35:52;7.70;;;5.00;;
76856;SDS011;69705;44.686;37.628;2023-07-13T05:38:19;8.85;;;5.40;;
76856;SDS011;69705;44.686;37.628;2023-07-13T05:40:46;8.57;;;4.93;;
76856;SDS011;69705;44.686;37.628;2023-07-13T05:43:14;10.73;;;5.38;;
76856;SDS011;69705;44.686;37.628;2023-07-13T05:45:40;9.30;;;4.90;;
76856;SDS011;69705;44.686;37.628;2023-07-13T05:48:07;9.07;;;5.07;;
76856;SDS011;69705;44.686;37.628;2023-07-13T05:50:34;11.02;;;5.40;;
76856;SDS011;69705;44.686;37.628;2023-07-13T05:53:01;9.43;;;5.40;;
76856;SDS011;69705;44.686;37.628;2023-07-13T05:55:28;8.75;;;5.25;;
76856;SDS011;69705;44.686;37.628;2023-07-13T05:57:55;10.18;;;5.25;;
76856;SDS011;69705;44.686;37.628;2023-07-13T06:00:24;8.37;;;5.33;;
76856;SDS011;69705;44.686;37.628;2023-07-13T06:02:51;10.52;;;4.80;;
76856;SDS011;69705;44.686;37.628;2023-07-13T06:05:18;9.38;;;5.28;;
76856;SDS011;69705;44.686;37.628;2023-07-13T06:07:45;8.85;;;5.20;;
76856;SDS011;69705;44.686;37.628;2023-07-13T06:10:17;8.25;;;5.20;;
76856;SDS011;69705;44.686;37.628;2023-07-13T06:12:44;8.77;;;5.10;;
76856;SDS011;69705;44.686;37.628;2023-07-13T06:15:11;8.40;;;4.97;;
76856;SDS011;69705;44.686;37.628;2023-07-13T06:17:38;8.93;;;5.32;;
76856;SDS011;69705;44.686;37.628;2023-07-13T06:20:05;9.07;;;5.28;;
76856;SDS011;69705;44.686;37.628;2023-07-13T06:22:33;8.82;;;5.60;;
76856;SDS011;69705;44.686;37.628;2023-07-13T06:24:59;7.90;;;5.10;;
76856;SDS011;69705;44.686;37.628;2023-07-13T06:27:26;10.00;;;5.22;;
76856;SDS011;69705;44.686;37.628;2023-07-13T06:29:53;9.70;;;5.22;;
76856;SDS011;69705;44.686;37.628;2023-07-13T06:32:20;8.85;;;4.90;;
76856;SDS011;69705;44.686;37.628;2023-07-13T06:34:47;8.52;;;5.00;;
76856;SDS011;69705;44.686;37.628;2023-07-13T06:37:14;8.00;;;5.10;;
76856;SDS011;69705;44.686;37.628;2023-07-13T06:39:41;9.10;;;5.00;;
76856;SDS011;69705;44.686;37.628;2023-07-13T06:42:08;9.93;;;5.20;;
76856;SDS011;69705;44.686;37.628;2023-07-13T06:44:35;8.63;;;5.20;;
76856;SDS011;69705;44.686;37.628;2023-07-13T06:47:02;10.05;;;5.40;;
76856;SDS011;69705;44.686;37.628;2023-07-13T06:49:29;8.47;;;5.10;;
76856;SDS011;69705;44.686;37.628;2023-07-13T06:51:55;9.73;;;5.00;;
76856;SDS011;69705;44.686;37.628;2023-07-13T06:54:22;8.30;;;5.10;;
76856;SDS011;69705;44.686;37.628;2023-07-13T06:56:49;9.68;;;5.30;;
76856;SDS011;69705;44.686;37.628;2023-07-13T06:59:16;9.05;;;5.25;;
76856;SDS011;69705;44.686;37.628;2023-07-13T07:01:43;8.17;;;5.10;;
76856;SDS011;69705;44.686;37.628;2023-07-13T07:04:10;9.15;;;4.90;;
76856;SDS011;69705;44.686;37.628;2023-07-13T07:06:37;8.75;;;5.57;;
76856;SDS011;69705;44.686;37.628;2023-07-13T07:09:03;7.95;;;4.72;;
76856;SDS011;69705;44.686;37.628;2023-07-13T07:11:30;9.10;;;5.45;;
76856;SDS011;69705;44.686;37.628;2023-07-13T07:13:57;8.77;;;4.63;;
76856;SDS011;69705;44.686;37.628;2023-07-13T07:16:26;7.47;;;4.60;;
76856;SDS011;69705;44.686;37.628;2023-07-13T07:18:52;8.98;;;4.80;;
76856;SDS011;69705;44.686;37.628;2023-07-13T07:21:19;10.30;;;4.70;;
76856;SDS011;69705;44.686;37.628;2023-07-13T07:23:48;9.27;;;4.90;;
76856;SDS011;69705;44.686;37.628;2023-07-13T07:26:15;9.63;;;4.77;;
76856;SDS011;69705;44.686;37.628;2023-07-13T07:28:42;7.90;;;4.82;;
76856;SDS011;69705;44.686;37.628;2023-07-13T07:31:09;9.07;;;4.68;;
76856;SDS011;69705;44.686;37.628;2023-07-13T07:33:36;7.30;;;4.57;;
76856;SDS011;69705;44.686;37.628;2023-07-13T07:36:03;9.80;;;4.95;;
76856;SDS011;69705;44.686;37.628;2023-07-13T07:38:30;7.60;;;4.23;;
76856;SDS011;69705;44.686;37.628;2023-07-13T07:40:57;8.10;;;4.80;;
76856;SDS011;69705;44.686;37.628;2023-07-13T07:43:24;7.85;;;4.70;;
76856;SDS011;69705;44.686;37.628;2023-07-13T07:45:51;8.45;;;5.10;;
76856;SDS011;69705;44.686;37.628;2023-07-13T07:48:18;8.38;;;4.80;;
76856;SDS011;69705;44.686;37.628;2023-07-13T07:50:45;7.60;;;4.77;;
76856;SDS011;69705;44.686;37.628;2023-07-13T07:53:12;8.18;;;4.55;;
76856;SDS011;69705;44.686;37.628;2023-07-13T07:55:39;7.75;;;4.60;;
76856;SDS011;69705;44.686;37.628;2023-07-13T07:58:06;7.70;;;4.60;;
76856;SDS011;69705;44.686;37.628;2023-07-13T08:00:33;7.82;;;4.60;;
76856;SDS011;69705;44.686;37.628;2023-07-13T08:03:01;7.40;;;4.83;;
76856;SDS011;69705;44.686;37.628;2023-07-13T08:05:28;8.18;;;4.80;;
76856;SDS011;69705;44.686;37.628;2023-07-13T08:07:56;9.00;;;4.70;;
76856;SDS011;69705;44.686;37.628;2023-07-13T08:10:22;8.07;;;5.05;;
76856;SDS011;69705;44.686;37.628;2023-07-13T08:12:49;8.85;;;5.07;;
76856;SDS011;69705;44.686;37.628;2023-07-13T08:15:16;10.63;;;5.67;;
76856;SDS011;69705;44.686;37.628;2023-07-13T08:17:47;11.38;;;4.70;;
76856;SDS011;69705;44.686;37.628;2023-07-13T08:20:14;8.35;;;4.80;;
76856;SDS011;69705;44.686;37.628;2023-07-13T08:22:42;9.45;;;5.28;;
76856;SDS011;69705;44.686;37.628;2023-07-13T08:25:09;7.72;;;5.07;;
76856;SDS011;69705;44.686;37.628;2023-07-13T08:27:36;9.33;;;5.07;;
76856;SDS011;69705;44.686;37.628;2023-07-13T08:30:03;11.63;;;4.70;;
76856;SDS011;69705;44.686;37.628;2023-07-13T08:32:31;7.85;;;4.57;;
76856;SDS011;69705;44.686;37.628;2023-07-13T08:34:58;7.35;;;4.30;;
76856;SDS011;69705;44.686;37.628;2023-07-13T08:37:25;9.27;;;5.13;;
76856;SDS011;69705;44.686;37.628;2023-07-13T08:39:52;8.23;;;4.53;;
76856;SDS011;69705;44.686;37.628;2023-07-13T08:45:17;9.63;;;4.63;;
76856;SDS011;69705;44.686;37.628;2023-07-13T08:48:15;8.18;;;4.28;;
76856;SDS011;69705;44.686;37.628;2023-07-13T08:53:52;8.20;;;4.37;;
76856;SDS011;69705;44.686;37.628;2023-07-13T08:56:24;11.00;;;4.60;;
76856;SDS011;69705;44.686;37.628;2023-07-13T08:58:55;7.82;;;4.43;;
76856;SDS011;69705;44.686;37.628;2023-07-13T09:01:44;8.10;;;4.68;;
76856;SDS011;69705;44.686;37.628;2023-07-13T09:04:33;7.05;;;4.22;;
76856;SDS011;69705;44.686;37.628;2023-07-13T09:09:49;8.98;;;4.45;;
76856;SDS011;69705;44.686;37.628;2023-07-13T09:12:48;8.40;;;4.85;;
76856;SDS011;69705;44.686;37.628;2023-07-13T09:15:37;8.77;;;4.80;;
76856;SDS011;69705;44.686;37.628;2023-07-13T09:18:11;7.40;;;4.35;;
76856;SDS011;69705;44.686;37.628;2023-07-13T09:20:46;8.07;;;4.30;;
76856;SDS011;69705;44.686;37.628;2023-07-13T09:23:17;8.43;;;4.40;;
76856;SDS011;69705;44.686;37.628;2023-07-13T09:25:47;8.93;;;4.32;;
76856;SDS011;69705;44.686;37.628;2023-07-13T09:28:25;11.90;;;4.53;;
76856;SDS011;69705;44.686;37.628;2023-07-13T09:31:30;7.50;;;4.32;;
76856;SDS011;69705;44.686;37.628;2023-07-13T09:33:52;8.10;;;3.93;;
76856;SDS011;69705;44.686;37.628;2023-07-13T09:44:17;7.65;;;3.90;;
76856;SDS011;69705;44.686;37.628;2023-07-13T09:46:54;8.40;;;4.23;;
76856;SDS011;69705;44.686;37.628;2023-07-13T09:49:25;8.57;;;4.38;;
76856;SDS011;69705;44.686;37.628;2023-07-13T09:51:59;7.35;;;4.40;;
76856;SDS011;69705;44.686;37.628;2023-07-13T09:54:29;8.05;;;3.95;;
76856;SDS011;69705;44.686;37.628;2023-07-13T09:57:00;7.38;;;4.10;;
76856;SDS011;69705;44.686;37.628;2023-07-13T09:59:33;7.87;;;4.13;;
76856;SDS011;69705;44.686;37.628;2023-07-13T10:05:07;7.80;;;4.28;;
76856;SDS011;69705;44.686;37.628;2023-07-13T10:07:40;10.48;;;4.00;;
76856;SDS011;69705;44.686;37.628;2023-07-13T10:10:14;7.55;;;3.92;;
76856;SDS011;69705;44.686;37.628;2023-07-13T10:12:43;8.20;;;3.87;;
76856;SDS011;69705;44.686;37.628;2023-07-13T10:15:15;8.90;;;4.28;;
76856;SDS011;69705;44.686;37.628;2023-07-13T10:17:49;8.68;;;4.10;;
76856;SDS011;69705;44.686;37.628;2023-07-13T10:20:21;8.05;;;3.80;;
76856;SDS011;69705;44.686;37.628;2023-07-13T10:22:56;8.32;;;4.18;;
76856;SDS011;69705;44.686;37.628;2023-07-13T10:25:25;11.10;;;4.20;;
76856;SDS011;69705;44.686;37.628;2023-07-13T10:28:02;8.85;;;4.28;;
76856;SDS011;69705;44.686;37.628;2023-07-13T10:30:40;7.00;;;4.00;;
76856;SDS011;69705;44.686;37.628;2023-07-13T10:33:10;9.10;;;3.80;;
76856;SDS011;69705;44.686;37.628;2023-07-13T10:35:39;6.78;;;3.92;;
76856;SDS011;69705;44.686;37.628;2023-07-13T10:38:13;7.70;;;3.90;;
76856;SDS011;69705;44.686;37.628;2023-07-13T10:43:50;8.35;;;3.80;;
76856;SDS011;69705;44.686;37.628;2023-07-13T10:46:22;8.40;;;3.90;;
76856;SDS011;69705;44.686;37.628;2023-07-13T10:49:00;7.60;;;4.00;;
76856;SDS011;69705;44.686;37.628;2023-07-13T10:51:31;8.27;;;3.70;;
76856;SDS011;69705;44.686;37.628;2023-07-13T10:56:42;7.30;;;3.90;;
76856;SDS011;69705;44.686;37.628;2023-07-13T10:59:12;9.43;;;3.75;;
76856;SDS011;69705;44.686;37.628;2023-07-13T11:04:13;7.80;;;3.80;;
76856;SDS011;69705;44.686;37.628;2023-07-13T11:06:41;9.70;;;4.10;;
76856;SDS011;69705;44.686;37.628;2023-07-13T11:12:10;7.63;;;3.70;;
76856;SDS011;69705;44.686;37.628;2023-07-13T11:15:11;7.10;;;3.53;;
76856;SDS011;69705;44.686;37.628;2023-07-13T11:22:51;9.63;;;4.03;;
76856;SDS011;69705;44.686;37.628;2023-07-13T11:25:38;7.22;;;3.72;;
76856;SDS011;69705;44.686;37.628;2023-07-13T11:28:11;6.55;;;3.47;;
76856;SDS011;69705;44.686;37.628;2023-07-13T11:33:24;8.45;;;3.67;;
76856;SDS011;69705;44.686;37.628;2023-07-13T11:38:40;8.77;;;4.10;;
76856;SDS011;69705;44.686;37.628;2023-07-13T11:41:15;7.10;;;3.78;;
76856;SDS011;69705;44.686;37.628;2023-07-13T11:43:48;6.63;;;3.57;;
76856;SDS011;69705;44.686;37.628;2023-07-13T11:46:21;12.52;;;4.25;;
76856;SDS011;69705;44.686;37.628;2023-07-13T11:48:53;8.63;;;3.67;;
76856;SDS011;69705;44.686;37.628;2023-07-13T11:51:21;7.28;;;3.50;;
76856;SDS011;69705;44.686;37.628;2023-07-13T11:53:58;7.78;;;3.45;;
76856;SDS011;69705;44.686;37.628;2023-07-13T11:56:39;8.13;;;3.50;;
76856;SDS011;69705;44.686;37.628;2023-07-13T11:59:07;10.30;;;3.20;;
76856;SDS011;69705;44.686;37.628;2023-07-13T12:01:49;9.38;;;3.25;;
76856;SDS011;69705;44.686;37.628;2023-07-13T12:04:20;7.35;;;3.45;;
76856;SDS011;69705;44.686;37.628;2023-07-13T12:07:14;6.45;;;3.10;;
76856;SDS011;69705;44.686;37.628;2023-07-13T12:09:43;7.27;;;3.70;;
76856;SDS011;69705;44.686;37.628;2023-07-13T12:12:13;9.25;;;3.35;;
76856;SDS011;69705;44.686;37.628;2023-07-13T12:14:44;7.53;;;3.38;;
76856;SDS011;69705;44.686;37.628;2023-07-13T12:17:16;7.35;;;3.40;;
76856;SDS011;69705;44.686;37.628;2023-07-13T12:19:51;6.68;;;3.15;;
76856;SDS011;69705;44.686;37.628;2023-07-13T12:22:19;7.53;;;3.40;;
76856;SDS011;69705;44.686;37.628;2023-07-13T12:24:47;8.27;;;2.85;;
76856;SDS011;69705;44.686;37.628;2023-07-13T12:27:22;7.50;;;2.95;;
76856;SDS011;69705;44.686;37.628;2023-07-13T12:29:56;7.18;;;3.40;;
76856;SDS011;69705;44.686;37.628;2023-07-13T12:32:26;6.80;;;3.25;;
76856;SDS011;69705;44.686;37.628;2023-07-13T12:34:54;8.97;;;3.13;;
76856;SDS011;69705;44.686;37.628;2023-07-13T12:37:23;7.78;;;3.15;;
76856;SDS011;69705;44.686;37.628;2023-07-13T12:39:51;7.35;;;3.88;;
76856;SDS011;69705;44.686;37.628;2023-07-13T12:44:47;7.60;;;3.47;;
76856;SDS011;69705;44.686;37.628;2023-07-13T12:47:14;5.73;;;2.90;;
76856;SDS011;69705;44.686;37.628;2023-07-13T12:49:43;9.70;;;3.15;;
76856;SDS011;69705;44.686;37.628;2023-07-13T12:52:16;6.47;;;2.95;;
76856;SDS011;69705;44.686;37.628;2023-07-13T12:54:56;7.97;;;3.45;;
76856;SDS011;69705;44.686;37.628;2023-07-13T12:57:26;6.93;;;3.30;;
76856;SDS011;69705;44.686;37.628;2023-07-13T12:59:53;7.67;;;3.10;;
76856;SDS011;69705;44.686;37.628;2023-07-13T13:02:30;8.98;;;3.40;;
76856;SDS011;69705;44.686;37.628;2023-07-13T13:05:00;7.32;;;2.92;;
76856;SDS011;69705;44.686;37.628;2023-07-13T13:07:30;7.55;;;3.13;;
76856;SDS011;69705;44.686;37.628;2023-07-13T13:09:57;6.57;;;3.08;;
76856;SDS011;69705;44.686;37.628;2023-07-13T13:12:25;7.27;;;3.07;;
76856;SDS011;69705;44.686;37.628;2023-07-13T13:14:52;7.22;;;3.33;;
76856;SDS011;69705;44.686;37.628;2023-07-13T13:17:19;7.95;;;3.22;;
76856;SDS011;69705;44.686;37.628;2023-07-13T13:19:51;6.22;;;2.92;;
76856;SDS011;69705;44.686;37.628;2023-07-13T13:22:20;7.00;;;3.30;;
76856;SDS011;69705;44.686;37.628;2023-07-13T13:24:47;10.80;;;3.10;;
76856;SDS011;69705;44.686;37.628;2023-07-13T13:27:15;9.93;;;3.10;;
76856;SDS011;69705;44.686;37.628;2023-07-13T13:29:44;6.88;;;2.95;;
76856;SDS011;69705;44.686;37.628;2023-07-13T13:32:12;7.95;;;2.90;;
76856;SDS011;69705;44.686;37.628;2023-07-13T13:34:40;20.70;;;3.50;;
76856;SDS011;69705;44.686;37.628;2023-07-13T13:37:26;7.20;;;3.00;;
76856;SDS011;69705;44.686;37.628;2023-07-13T13:39:53;7.15;;;2.90;;
76856;SDS011;69705;44.686;37.628;2023-07-13T13:42:21;6.97;;;3.00;;
76856;SDS011;69705;44.686;37.628;2023-07-13T13:44:50;15.70;;;3.00;;
76856;SDS011;69705;44.686;37.628;2023-07-13T13:47:27;6.43;;;2.80;;
76856;SDS011;69705;44.686;37.628;2023-07-13T13:49:57;6.60;;;2.53;;
76856;SDS011;69705;44.686;37.628;2023-07-13T13:52:24;6.60;;;2.80;;
76856;SDS011;69705;44.686;37.628;2023-07-13T13:54:51;7.57;;;2.85;;
76856;SDS011;69705;44.686;37.628;2023-07-13T13:57:23;7.25;;;2.80;;
76856;SDS011;69705;44.686;37.628;2023-07-13T13:59:51;6.78;;;2.83;;
76856;SDS011;69705;44.686;37.628;2023-07-13T14:02:22;6.27;;;2.70;;
76856;SDS011;69705;44.686;37.628;2023-07-13T14:05:00;6.55;;;2.60;;
76856;SDS011;69705;44.686;37.628;2023-07-13T14:07:29;6.78;;;2.67;;
76856;SDS011;69705;44.686;37.628;2023-07-13T14:09:57;6.32;;;2.65;;
76856;SDS011;69705;44.686;37.628;2023-07-13T14:12:29;5.85;;;2.65;;
76856;SDS011;69705;44.686;37.628;2023-07-13T14:14:56;6.73;;;2.80;;
76856;SDS011;69705;44.686;37.628;2023-07-13T14:17:25;5.90;;;2.42;;
76856;SDS011;69705;44.686;37.628;2023-07-13T14:19:53;6.30;;;2.75;;
76856;SDS011;69705;44.686;37.628;2023-07-13T14:22:24;7.50;;;2.90;;
76856;SDS011;69705;44.686;37.628;2023-07-13T14:24:52;7.55;;;2.85;;
76856;SDS011;69705;44.686;37.628;2023-07-13T14:27:21;7.80;;;3.00;;
76856;SDS011;69705;44.686;37.628;2023-07-13T14:29:49;6.60;;;2.72;;
76856;SDS011;69705;44.686;37.628;2023-07-13T14:32:16;6.82;;;2.83;;
76856;SDS011;69705;44.686;37.628;2023-07-13T14:34:43;6.38;;;2.65;;
76856;SDS011;69705;44.686;37.628;2023-07-13T14:37:12;6.43;;;2.63;;
76856;SDS011;69705;44.686;37.628;2023-07-13T14:39:41;5.83;;;2.43;;
76856;SDS011;69705;44.686;37.628;2023-07-13T14:42:10;7.95;;;2.78;;
76856;SDS011;69705;44.686;37.628;2023-07-13T14:44:38;6.50;;;2.75;;
76856;SDS011;69705;44.686;37.628;2023-07-13T14:47:07;6.15;;;2.30;;
76856;SDS011;69705;44.686;37.628;2023-07-13T14:49:35;7.15;;;2.60;;
76856;SDS011;69705;44.686;37.628;2023-07-13T14:52:15;8.10;;;3.23;;
76856;SDS011;69705;44.686;37.628;2023-07-13T14:54:44;5.35;;;2.50;;
76856;SDS011;69705;44.686;37.628;2023-07-13T14:57:13;6.32;;;2.63;;
76856;SDS011;69705;44.686;37.628;2023-07-13T14:59:42;6.88;;;2.72;;
76856;SDS011;69705;44.686;37.628;2023-07-13T15:02:16;5.78;;;2.45;;
76856;SDS011;69705;44.686;37.628;2023-07-13T15:07:41;6.72;;;2.78;;
76856;SDS011;69705;44.686;37.628;2023-07-13T15:10:21;7.60;;;3.20;;
76856;SDS011;69705;44.686;37.628;2023-07-13T15:12:51;6.00;;;2.70;;
76856;SDS011;69705;44.686;37.628;2023-07-13T15:15:19;6.85;;;2.88;;
76856;SDS011;69705;44.686;37.628;2023-07-13T15:17:46;8.83;;;3.00;;
76856;SDS011;69705;44.686;37.628;2023-07-13T15:20:19;8.85;;;2.63;;
76856;SDS011;69705;44.686;37.628;2023-07-13T15:22:55;7.68;;;2.85;;
76856;SDS011;69705;44.686;37.628;2023-07-13T15:25:24;9.88;;;2.70;;
76856;SDS011;69705;44.686;37.628;2023-07-13T15:27:53;6.95;;;2.60;;
76856;SDS011;69705;44.686;37.628;2023-07-13T15:30:21;7.83;;;2.80;;
76856;SDS011;69705;44.686;37.628;2023-07-13T15:32:51;8.27;;;2.83;;
76856;SDS011;69705;44.686;37.628;2023-07-13T15:35:19;7.57;;;2.80;;
76856;SDS011;69705;44.686;37.628;2023-07-13T15:37:48;7.40;;;2.72;;